sensor_id;sensor_type;location;lat;lon;timestamp;P1;durP1;ratioP1;P2;durP2;ratioP2
59434;SDS011;45241;49.768;8.636;2024-01-07T00:00:05;22.73;;;11.00;;
59434;SDS011;45241;49.768;8.636;2024-01-07T00:02:31;22.77;;;10.80;;
59434;SDS011;45241;49.768;8.636;2024-01-07T00:04:56;22.52;;;10.65;;
59434;SDS011;45241;49.768;8.636;2024-01-07T00:07:22;22.77;;;11.30;;
59434;SDS011;45241;49.768;8.636;2024-01-07T00:09:48;19.23;;;10.20;;
59434;SDS011;45241;49.768;8.636;2024-01-07T00:12:13;18.63;;;10.07;;
59434;SDS011;45241;49.768;8.636;2024-01-07T00:14:38;20.95;;;10.18;;
59434;SDS011;45241;49.768;8.636;2024-01-07T00:17:04;18.92;;;9.65;;
59434;SDS011;45241;49.768;8.636;2024-01-07T00:19:29;16.00;;;9.05;;
59434;SDS011;45241;49.768;8.636;2024-01-07T00:21:56;18.00;;;9.20;;
59434;SDS011;45241;49.768;8.636;2024-01-07T00:24:22;19.17;;;10.45;;
59434;SDS011;45241;49.768;8.636;2024-01-07T00:26:50;19.05;;;9.88;;
59434;SDS011;45241;49.768;8.636;2024-01-07T00:29:15;20.08;;;10.50;;
59434;SDS011;45241;49.768;8.636;2024-01-07T00:31:41;17.00;;;9.60;;
59434;SDS011;45241;49.768;8.636;2024-01-07T00:34:06;28.90;;;21.98;;
59434;SDS011;45241;49.768;8.636;2024-01-07T00:36:31;23.17;;;17.60;;
59434;SDS011;45241;49.768;8.636;2024-01-07T00:38:57;19.17;;;12.07;;
59434;SDS011;45241;49.768;8.636;2024-01-07T00:41:22;16.77;;;10.23;;
59434;SDS011;45241;49.768;8.636;2024-01-07T00:43:47;15.40;;;9.13;;
59434;SDS011;45241;49.768;8.636;2024-01-07T00:46:12;12.95;;;7.50;;
59434;SDS011;45241;49.768;8.636;2024-01-07T00:48:38;13.25;;;7.25;;
59434;SDS011;45241;49.768;8.636;2024-01-07T00:51:03;14.55;;;8.15;;
59434;SDS011;45241;49.768;8.636;2024-01-07T00:53:29;13.32;;;7.00;;
59434;SDS011;45241;49.768;8.636;2024-01-07T00:55:54;14.13;;;7.85;;
59434;SDS011;45241;49.768;8.636;2024-01-07T00:58:19;13.88;;;7.85;;
59434;SDS011;45241;49.768;8.636;2024-01-07T01:00:44;15.82;;;8.35;;
59434;SDS011;45241;49.768;8.636;2024-01-07T01:03:10;15.32;;;8.25;;
59434;SDS011;45241;49.768;8.636;2024-01-07T01:05:35;13.93;;;7.93;;
59434;SDS011;45241;49.768;8.636;2024-01-07T01:08:01;15.88;;;8.45;;
59434;SDS011;45241;49.768;8.636;2024-01-07T01:10:26;15.45;;;8.70;;
59434;SDS011;45241;49.768;8.636;2024-01-07T01:12:51;15.95;;;8.60;;
59434;SDS011;45241;49.768;8.636;2024-01-07T01:15:19;16.67;;;9.25;;
59434;SDS011;45241;49.768;8.636;2024-01-07T01:17:44;15.35;;;8.80;;
59434;SDS011;45241;49.768;8.636;2024-01-07T01:20:10;12.63;;;7.82;;
59434;SDS011;45241;49.768;8.636;2024-01-07T01:22:35;13.27;;;8.85;;
59434;SDS011;45241;49.768;8.636;2024-01-07T01:25:01;13.00;;;8.13;;
59434;SDS011;45241;49.768;8.636;2024-01-07T01:27:28;12.13;;;7.90;;
59434;SDS011;45241;49.768;8.636;2024-01-07T01:29:53;14.90;;;9.32;;
59434;SDS011;45241;49.768;8.636;2024-01-07T01:32:18;15.10;;;8.68;;
59434;SDS011;45241;49.768;8.636;2024-01-07T01:34:44;14.02;;;8.07;;
59434;SDS011;45241;49.768;8.636;2024-01-07T01:37:09;13.90;;;8.05;;
59434;SDS011;45241;49.768;8.636;2024-01-07T01:39:34;13.10;;;7.75;;
59434;SDS011;45241;49.768;8.636;2024-01-07T01:42:00;15.07;;;8.98;;
59434;SDS011;45241;49.768;8.636;2024-01-07T01:44:25;13.15;;;8.13;;
59434;SDS011;45241;49.768;8.636;2024-01-07T01:46:52;12.25;;;7.50;;
59434;SDS011;45241;49.768;8.636;2024-01-07T01:49:19;13.13;;;8.48;;
59434;SDS011;45241;49.768;8.636;2024-01-07T01:51:44;14.68;;;8.18;;
59434;SDS011;45241;49.768;8.636;2024-01-07T01:54:09;13.15;;;8.02;;
59434;SDS011;45241;49.768;8.636;2024-01-07T01:56:35;13.82;;;7.85;;
59434;SDS011;45241;49.768;8.636;2024-01-07T01:59:01;13.52;;;7.75;;
59434;SDS011;45241;49.768;8.636;2024-01-07T02:01:26;11.73;;;7.43;;
59434;SDS011;45241;49.768;8.636;2024-01-07T02:03:51;12.23;;;7.45;;
59434;SDS011;45241;49.768;8.636;2024-01-07T02:06:18;11.40;;;7.38;;
59434;SDS011;45241;49.768;8.636;2024-01-07T02:08:45;11.98;;;7.45;;
59434;SDS011;45241;49.768;8.636;2024-01-07T02:11:21;12.23;;;7.43;;
59434;SDS011;45241;49.768;8.636;2024-01-07T02:13:47;12.93;;;7.15;;
59434;SDS011;45241;49.768;8.636;2024-01-07T02:16:13;11.95;;;7.32;;
59434;SDS011;45241;49.768;8.636;2024-01-07T02:18:40;11.68;;;6.90;;
59434;SDS011;45241;49.768;8.636;2024-01-07T02:21:06;11.15;;;6.80;;
59434;SDS011;45241;49.768;8.636;2024-01-07T02:23:32;10.50;;;6.90;;
59434;SDS011;45241;49.768;8.636;2024-01-07T02:25:57;12.02;;;7.10;;
59434;SDS011;45241;49.768;8.636;2024-01-07T02:28:23;11.40;;;7.07;;
59434;SDS011;45241;49.768;8.636;2024-01-07T02:30:48;13.68;;;7.68;;
59434;SDS011;45241;49.768;8.636;2024-01-07T02:33:13;11.75;;;6.68;;
59434;SDS011;45241;49.768;8.636;2024-01-07T02:35:39;12.80;;;7.50;;
59434;SDS011;45241;49.768;8.636;2024-01-07T02:38:04;13.57;;;6.97;;
59434;SDS011;45241;49.768;8.636;2024-01-07T02:40:29;15.23;;;7.20;;
59434;SDS011;45241;49.768;8.636;2024-01-07T02:42:54;11.48;;;6.95;;
59434;SDS011;45241;49.768;8.636;2024-01-07T02:45:21;11.05;;;6.60;;
59434;SDS011;45241;49.768;8.636;2024-01-07T02:47:47;12.07;;;6.95;;
59434;SDS011;45241;49.768;8.636;2024-01-07T02:50:12;11.18;;;6.78;;
59434;SDS011;45241;49.768;8.636;2024-01-07T02:52:37;11.70;;;6.95;;
59434;SDS011;45241;49.768;8.636;2024-01-07T02:55:03;12.60;;;7.07;;
59434;SDS011;45241;49.768;8.636;2024-01-07T02:57:28;11.32;;;6.85;;
59434;SDS011;45241;49.768;8.636;2024-01-07T02:59:53;11.63;;;6.88;;
59434;SDS011;45241;49.768;8.636;2024-01-07T03:02:19;10.95;;;6.50;;
59434;SDS011;45241;49.768;8.636;2024-01-07T03:04:44;10.65;;;6.70;;
59434;SDS011;45241;49.768;8.636;2024-01-07T03:07:09;11.07;;;6.65;;
59434;SDS011;45241;49.768;8.636;2024-01-07T03:09:34;11.77;;;6.95;;
59434;SDS011;45241;49.768;8.636;2024-01-07T03:12:00;11.40;;;6.70;;
59434;SDS011;45241;49.768;8.636;2024-01-07T03:14:25;9.85;;;6.00;;
59434;SDS011;45241;49.768;8.636;2024-01-07T03:16:51;9.80;;;6.43;;
59434;SDS011;45241;49.768;8.636;2024-01-07T03:19:17;9.75;;;6.40;;
59434;SDS011;45241;49.768;8.636;2024-01-07T03:21:42;10.45;;;6.63;;
59434;SDS011;45241;49.768;8.636;2024-01-07T03:24:07;9.80;;;6.43;;
59434;SDS011;45241;49.768;8.636;2024-01-07T03:26:33;11.35;;;6.75;;
59434;SDS011;45241;49.768;8.636;2024-01-07T03:28:58;11.60;;;6.88;;
59434;SDS011;45241;49.768;8.636;2024-01-07T03:31:27;9.57;;;6.22;;
59434;SDS011;45241;49.768;8.636;2024-01-07T03:33:52;11.27;;;6.28;;
59434;SDS011;45241;49.768;8.636;2024-01-07T03:36:18;10.02;;;6.30;;
59434;SDS011;45241;49.768;8.636;2024-01-07T03:38:43;9.90;;;6.20;;
59434;SDS011;45241;49.768;8.636;2024-01-07T03:41:08;9.80;;;6.25;;
59434;SDS011;45241;49.768;8.636;2024-01-07T03:43:34;12.80;;;6.55;;
59434;SDS011;45241;49.768;8.636;2024-01-07T03:45:59;10.35;;;5.90;;
59434;SDS011;45241;49.768;8.636;2024-01-07T03:48:25;10.38;;;6.07;;
59434;SDS011;45241;49.768;8.636;2024-01-07T03:50:51;10.75;;;5.80;;
59434;SDS011;45241;49.768;8.636;2024-01-07T03:53:16;10.35;;;5.75;;
59434;SDS011;45241;49.768;8.636;2024-01-07T03:55:42;9.48;;;5.40;;
59434;SDS011;45241;49.768;8.636;2024-01-07T03:58:07;8.98;;;5.53;;
59434;SDS011;45241;49.768;8.636;2024-01-07T04:00:33;11.88;;;5.95;;
59434;SDS011;45241;49.768;8.636;2024-01-07T04:02:58;10.63;;;5.82;;
59434;SDS011;45241;49.768;8.636;2024-01-07T04:05:24;9.65;;;5.90;;
59434;SDS011;45241;49.768;8.636;2024-01-07T04:07:49;9.05;;;5.80;;
59434;SDS011;45241;49.768;8.636;2024-01-07T04:10:16;11.05;;;6.25;;
59434;SDS011;45241;49.768;8.636;2024-01-07T04:12:42;10.80;;;6.25;;
59434;SDS011;45241;49.768;8.636;2024-01-07T04:15:07;10.30;;;5.97;;
59434;SDS011;45241;49.768;8.636;2024-01-07T04:17:33;9.57;;;5.82;;
59434;SDS011;45241;49.768;8.636;2024-01-07T04:19:58;9.05;;;5.90;;
59434;SDS011;45241;49.768;8.636;2024-01-07T04:22:24;9.05;;;5.78;;
59434;SDS011;45241;49.768;8.636;2024-01-07T04:24:49;9.00;;;5.85;;
59434;SDS011;45241;49.768;8.636;2024-01-07T04:27:14;10.30;;;5.50;;
59434;SDS011;45241;49.768;8.636;2024-01-07T04:29:39;11.35;;;6.13;;
59434;SDS011;45241;49.768;8.636;2024-01-07T04:32:05;9.10;;;5.75;;
59434;SDS011;45241;49.768;8.636;2024-01-07T04:34:30;10.18;;;6.00;;
59434;SDS011;45241;49.768;8.636;2024-01-07T04:36:55;8.48;;;4.80;;
59434;SDS011;45241;49.768;8.636;2024-01-07T04:39:21;9.43;;;5.75;;
59434;SDS011;45241;49.768;8.636;2024-01-07T04:41:46;10.43;;;6.20;;
59434;SDS011;45241;49.768;8.636;2024-01-07T04:44:11;9.52;;;5.53;;
59434;SDS011;45241;49.768;8.636;2024-01-07T04:46:39;10.15;;;6.05;;
59434;SDS011;45241;49.768;8.636;2024-01-07T04:49:05;11.15;;;6.18;;
59434;SDS011;45241;49.768;8.636;2024-01-07T04:51:31;9.80;;;5.50;;
59434;SDS011;45241;49.768;8.636;2024-01-07T04:53:57;11.35;;;6.35;;
59434;SDS011;45241;49.768;8.636;2024-01-07T04:56:22;8.95;;;5.80;;
59434;SDS011;45241;49.768;8.636;2024-01-07T04:58:47;10.93;;;5.82;;
59434;SDS011;45241;49.768;8.636;2024-01-07T05:01:13;9.88;;;6.13;;
59434;SDS011;45241;49.768;8.636;2024-01-07T05:03:38;10.93;;;6.38;;
59434;SDS011;45241;49.768;8.636;2024-01-07T05:06:03;11.23;;;6.53;;
59434;SDS011;45241;49.768;8.636;2024-01-07T05:08:29;9.70;;;6.30;;
59434;SDS011;45241;49.768;8.636;2024-01-07T05:10:54;11.07;;;5.97;;
59434;SDS011;45241;49.768;8.636;2024-01-07T05:13:20;12.13;;;6.53;;
59434;SDS011;45241;49.768;8.636;2024-01-07T05:15:45;11.60;;;7.03;;
59434;SDS011;45241;49.768;8.636;2024-01-07T05:18:11;13.10;;;7.50;;
59434;SDS011;45241;49.768;8.636;2024-01-07T05:20:37;13.02;;;7.75;;
59434;SDS011;45241;49.768;8.636;2024-01-07T05:23:02;12.48;;;7.75;;
59434;SDS011;45241;49.768;8.636;2024-01-07T05:25:28;14.68;;;7.95;;
59434;SDS011;45241;49.768;8.636;2024-01-07T05:27:54;14.38;;;8.05;;
59434;SDS011;45241;49.768;8.636;2024-01-07T05:30:19;13.85;;;7.72;;
59434;SDS011;45241;49.768;8.636;2024-01-07T05:32:44;13.18;;;8.35;;
59434;SDS011;45241;49.768;8.636;2024-01-07T05:35:09;16.45;;;8.57;;
59434;SDS011;45241;49.768;8.636;2024-01-07T05:37:35;14.82;;;8.50;;
59434;SDS011;45241;49.768;8.636;2024-01-07T05:40:00;16.23;;;8.30;;
59434;SDS011;45241;49.768;8.636;2024-01-07T05:42:26;15.32;;;8.30;;
59434;SDS011;45241;49.768;8.636;2024-01-07T05:44:51;15.13;;;8.98;;
59434;SDS011;45241;49.768;8.636;2024-01-07T05:47:19;14.57;;;8.93;;
59434;SDS011;45241;49.768;8.636;2024-01-07T05:49:44;15.48;;;8.45;;
59434;SDS011;45241;49.768;8.636;2024-01-07T05:52:10;17.80;;;9.63;;
59434;SDS011;45241;49.768;8.636;2024-01-07T05:54:35;16.98;;;9.98;;
59434;SDS011;45241;49.768;8.636;2024-01-07T05:57:00;19.80;;;9.23;;
59434;SDS011;45241;49.768;8.636;2024-01-07T05:59:26;18.05;;;9.90;;
59434;SDS011;45241;49.768;8.636;2024-01-07T06:01:51;16.52;;;9.50;;
59434;SDS011;45241;49.768;8.636;2024-01-07T06:04:16;18.73;;;10.63;;
59434;SDS011;45241;49.768;8.636;2024-01-07T06:06:41;17.42;;;10.40;;
59434;SDS011;45241;49.768;8.636;2024-01-07T06:09:07;16.42;;;9.70;;
59434;SDS011;45241;49.768;8.636;2024-01-07T06:11:32;19.88;;;10.88;;
59434;SDS011;45241;49.768;8.636;2024-01-07T06:13:57;23.30;;;10.93;;
59434;SDS011;45241;49.768;8.636;2024-01-07T06:16:23;20.20;;;11.30;;
59434;SDS011;45241;49.768;8.636;2024-01-07T06:18:48;17.90;;;10.93;;
59434;SDS011;45241;49.768;8.636;2024-01-07T06:21:13;20.58;;;11.18;;
59434;SDS011;45241;49.768;8.636;2024-01-07T06:23:39;21.08;;;11.25;;
59434;SDS011;45241;49.768;8.636;2024-01-07T06:26:04;22.50;;;11.43;;
59434;SDS011;45241;49.768;8.636;2024-01-07T06:28:30;20.30;;;12.07;;
59434;SDS011;45241;49.768;8.636;2024-01-07T06:30:56;16.98;;;10.60;;
59434;SDS011;45241;49.768;8.636;2024-01-07T06:33:21;20.10;;;12.20;;
59434;SDS011;45241;49.768;8.636;2024-01-07T06:35:46;20.02;;;11.55;;
59434;SDS011;45241;49.768;8.636;2024-01-07T06:38:12;20.50;;;12.15;;
59434;SDS011;45241;49.768;8.636;2024-01-07T06:40:37;22.95;;;12.80;;
59434;SDS011;45241;49.768;8.636;2024-01-07T06:43:02;23.80;;;12.13;;
59434;SDS011;45241;49.768;8.636;2024-01-07T06:45:28;23.48;;;12.80;;
59434;SDS011;45241;49.768;8.636;2024-01-07T06:47:53;21.75;;;12.23;;
59434;SDS011;45241;49.768;8.636;2024-01-07T06:50:19;21.30;;;12.35;;
59434;SDS011;45241;49.768;8.636;2024-01-07T06:52:45;22.88;;;12.77;;
59434;SDS011;45241;49.768;8.636;2024-01-07T06:55:10;21.38;;;12.52;;
59434;SDS011;45241;49.768;8.636;2024-01-07T06:57:36;20.95;;;12.18;;
59434;SDS011;45241;49.768;8.636;2024-01-07T07:00:01;18.73;;;11.10;;
59434;SDS011;45241;49.768;8.636;2024-01-07T07:02:27;19.58;;;11.85;;
59434;SDS011;45241;49.768;8.636;2024-01-07T07:04:53;19.67;;;11.85;;
59434;SDS011;45241;49.768;8.636;2024-01-07T07:07:18;22.65;;;11.73;;
59434;SDS011;45241;49.768;8.636;2024-01-07T07:09:43;17.88;;;11.52;;
59434;SDS011;45241;49.768;8.636;2024-01-07T07:12:09;20.20;;;11.15;;
59434;SDS011;45241;49.768;8.636;2024-01-07T07:14:36;17.98;;;11.02;;
59434;SDS011;45241;49.768;8.636;2024-01-07T07:17:01;17.52;;;10.52;;
59434;SDS011;45241;49.768;8.636;2024-01-07T07:19:26;18.40;;;10.88;;
59434;SDS011;45241;49.768;8.636;2024-01-07T07:21:51;17.63;;;10.70;;
59434;SDS011;45241;49.768;8.636;2024-01-07T07:24:17;18.08;;;10.63;;
59434;SDS011;45241;49.768;8.636;2024-01-07T07:26:42;17.52;;;10.82;;
59434;SDS011;45241;49.768;8.636;2024-01-07T07:29:08;16.92;;;10.30;;
59434;SDS011;45241;49.768;8.636;2024-01-07T07:31:36;18.42;;;10.50;;
59434;SDS011;45241;49.768;8.636;2024-01-07T07:34:05;17.27;;;10.65;;
59434;SDS011;45241;49.768;8.636;2024-01-07T07:36:30;16.75;;;10.05;;
59434;SDS011;45241;49.768;8.636;2024-01-07T07:38:56;17.50;;;9.93;;
59434;SDS011;45241;49.768;8.636;2024-01-07T07:41:21;16.35;;;10.23;;
59434;SDS011;45241;49.768;8.636;2024-01-07T07:43:46;17.65;;;10.38;;
59434;SDS011;45241;49.768;8.636;2024-01-07T07:46:12;16.88;;;10.52;;
59434;SDS011;45241;49.768;8.636;2024-01-07T07:48:38;14.52;;;9.90;;
59434;SDS011;45241;49.768;8.636;2024-01-07T07:51:03;17.98;;;10.52;;
59434;SDS011;45241;49.768;8.636;2024-01-07T07:53:29;16.20;;;9.98;;
59434;SDS011;45241;49.768;8.636;2024-01-07T07:55:54;16.40;;;9.77;;
59434;SDS011;45241;49.768;8.636;2024-01-07T07:58:19;15.50;;;9.38;;
59434;SDS011;45241;49.768;8.636;2024-01-07T08:00:45;15.10;;;9.77;;
59434;SDS011;45241;49.768;8.636;2024-01-07T08:03:10;15.38;;;9.52;;
59434;SDS011;45241;49.768;8.636;2024-01-07T08:05:36;14.95;;;9.38;;
59434;SDS011;45241;49.768;8.636;2024-01-07T08:08:01;14.88;;;9.63;;
59434;SDS011;45241;49.768;8.636;2024-01-07T08:10:27;14.27;;;9.27;;
59434;SDS011;45241;49.768;8.636;2024-01-07T08:12:53;14.52;;;9.55;;
59434;SDS011;45241;49.768;8.636;2024-01-07T08:15:19;14.13;;;9.02;;
59434;SDS011;45241;49.768;8.636;2024-01-07T08:17:44;15.90;;;9.35;;
59434;SDS011;45241;49.768;8.636;2024-01-07T08:20:10;13.38;;;9.20;;
59434;SDS011;45241;49.768;8.636;2024-01-07T08:22:35;15.13;;;9.10;;
59434;SDS011;45241;49.768;8.636;2024-01-07T08:25:01;15.20;;;9.90;;
59434;SDS011;45241;49.768;8.636;2024-01-07T08:27:26;14.73;;;8.70;;
59434;SDS011;45241;49.768;8.636;2024-01-07T08:29:52;16.67;;;9.43;;
59434;SDS011;45241;49.768;8.636;2024-01-07T08:32:17;14.70;;;9.02;;
59434;SDS011;45241;49.768;8.636;2024-01-07T08:34:44;15.52;;;9.35;;
59434;SDS011;45241;49.768;8.636;2024-01-07T08:37:09;15.63;;;9.80;;
59434;SDS011;45241;49.768;8.636;2024-01-07T08:39:34;15.25;;;8.85;;
59434;SDS011;45241;49.768;8.636;2024-01-07T08:42:00;14.38;;;9.07;;
59434;SDS011;45241;49.768;8.636;2024-01-07T08:44:25;15.27;;;9.40;;
59434;SDS011;45241;49.768;8.636;2024-01-07T08:46:50;15.93;;;9.55;;
59434;SDS011;45241;49.768;8.636;2024-01-07T08:49:16;16.30;;;9.07;;
59434;SDS011;45241;49.768;8.636;2024-01-07T08:51:41;17.77;;;9.98;;
59434;SDS011;45241;49.768;8.636;2024-01-07T08:54:06;16.75;;;9.80;;
59434;SDS011;45241;49.768;8.636;2024-01-07T08:56:31;15.88;;;9.55;;
59434;SDS011;45241;49.768;8.636;2024-01-07T08:58:57;15.80;;;9.45;;
59434;SDS011;45241;49.768;8.636;2024-01-07T09:01:23;16.75;;;9.38;;
59434;SDS011;45241;49.768;8.636;2024-01-07T09:03:49;16.63;;;10.00;;
59434;SDS011;45241;49.768;8.636;2024-01-07T09:06:14;13.43;;;8.85;;
59434;SDS011;45241;49.768;8.636;2024-01-07T09:08:40;14.85;;;9.05;;
59434;SDS011;45241;49.768;8.636;2024-01-07T09:11:05;16.73;;;9.90;;
59434;SDS011;45241;49.768;8.636;2024-01-07T09:13:32;15.13;;;9.30;;
59434;SDS011;45241;49.768;8.636;2024-01-07T09:15:57;15.80;;;9.82;;
59434;SDS011;45241;49.768;8.636;2024-01-07T09:18:22;15.45;;;9.50;;
59434;SDS011;45241;49.768;8.636;2024-01-07T09:20:48;16.73;;;9.75;;
59434;SDS011;45241;49.768;8.636;2024-01-07T09:23:13;14.60;;;9.57;;
59434;SDS011;45241;49.768;8.636;2024-01-07T09:25:40;13.93;;;9.40;;
59434;SDS011;45241;49.768;8.636;2024-01-07T09:28:06;14.95;;;9.65;;
59434;SDS011;45241;49.768;8.636;2024-01-07T09:30:32;11.98;;;8.48;;
59434;SDS011;45241;49.768;8.636;2024-01-07T09:32:57;14.15;;;9.27;;
59434;SDS011;45241;49.768;8.636;2024-01-07T09:35:22;12.77;;;9.18;;
59434;SDS011;45241;49.768;8.636;2024-01-07T09:37:48;13.65;;;8.80;;
59434;SDS011;45241;49.768;8.636;2024-01-07T09:40:16;13.85;;;8.80;;
59434;SDS011;45241;49.768;8.636;2024-01-07T09:42:43;13.70;;;9.07;;
59434;SDS011;45241;49.768;8.636;2024-01-07T09:45:08;12.98;;;9.00;;
59434;SDS011;45241;49.768;8.636;2024-01-07T09:47:37;13.40;;;8.32;;
59434;SDS011;45241;49.768;8.636;2024-01-07T09:50:03;11.90;;;8.45;;
59434;SDS011;45241;49.768;8.636;2024-01-07T09:52:30;10.02;;;7.28;;
59434;SDS011;45241;49.768;8.636;2024-01-07T09:54:58;11.70;;;7.97;;
59434;SDS011;45241;49.768;8.636;2024-01-07T09:57:25;11.75;;;8.00;;
59434;SDS011;45241;49.768;8.636;2024-01-07T09:59:50;9.90;;;7.35;;
59434;SDS011;45241;49.768;8.636;2024-01-07T10:02:15;10.50;;;7.47;;
59434;SDS011;45241;49.768;8.636;2024-01-07T10:04:41;11.05;;;7.88;;
59434;SDS011;45241;49.768;8.636;2024-01-07T10:07:07;12.30;;;7.65;;
59434;SDS011;45241;49.768;8.636;2024-01-07T10:09:33;10.93;;;7.47;;
59434;SDS011;45241;49.768;8.636;2024-01-07T10:11:58;11.13;;;7.80;;
59434;SDS011;45241;49.768;8.636;2024-01-07T10:14:24;11.63;;;7.57;;
59434;SDS011;45241;49.768;8.636;2024-01-07T10:16:51;10.60;;;7.75;;
59434;SDS011;45241;49.768;8.636;2024-01-07T10:19:20;10.13;;;6.82;;
59434;SDS011;45241;49.768;8.636;2024-01-07T10:21:48;10.52;;;7.65;;
59434;SDS011;45241;49.768;8.636;2024-01-07T10:24:24;9.75;;;7.13;;
59434;SDS011;45241;49.768;8.636;2024-01-07T10:26:50;10.13;;;7.50;;
59434;SDS011;45241;49.768;8.636;2024-01-07T10:29:15;11.50;;;7.45;;
59434;SDS011;45241;49.768;8.636;2024-01-07T10:31:40;9.88;;;6.57;;
59434;SDS011;45241;49.768;8.636;2024-01-07T10:34:07;10.95;;;6.32;;
59434;SDS011;45241;49.768;8.636;2024-01-07T10:36:34;11.45;;;6.45;;
59434;SDS011;45241;49.768;8.636;2024-01-07T10:38:59;11.20;;;6.93;;
59434;SDS011;45241;49.768;8.636;2024-01-07T10:41:25;9.90;;;6.65;;
59434;SDS011;45241;49.768;8.636;2024-01-07T10:43:52;9.18;;;6.88;;
59434;SDS011;45241;49.768;8.636;2024-01-07T10:46:17;9.88;;;6.43;;
59434;SDS011;45241;49.768;8.636;2024-01-07T10:48:49;9.70;;;6.78;;
59434;SDS011;45241;49.768;8.636;2024-01-07T10:51:16;9.52;;;6.88;;
59434;SDS011;45241;49.768;8.636;2024-01-07T10:53:42;11.77;;;6.40;;
59434;SDS011;45241;49.768;8.636;2024-01-07T10:56:10;9.65;;;7.10;;
59434;SDS011;45241;49.768;8.636;2024-01-07T10:58:37;10.15;;;7.68;;
59434;SDS011;45241;49.768;8.636;2024-01-07T11:01:04;9.63;;;6.63;;
59434;SDS011;45241;49.768;8.636;2024-01-07T11:03:40;9.75;;;6.93;;
59434;SDS011;45241;49.768;8.636;2024-01-07T11:11:39;10.45;;;7.40;;
59434;SDS011;45241;49.768;8.636;2024-01-07T11:17:13;12.90;;;7.85;;
59434;SDS011;45241;49.768;8.636;2024-01-07T11:19:48;10.90;;;7.38;;
59434;SDS011;45241;49.768;8.636;2024-01-07T11:22:26;11.13;;;7.45;;
59434;SDS011;45241;49.768;8.636;2024-01-07T11:24:53;10.65;;;7.35;;
59434;SDS011;45241;49.768;8.636;2024-01-07T11:27:20;11.20;;;8.13;;
59434;SDS011;45241;49.768;8.636;2024-01-07T11:29:52;11.02;;;7.32;;
59434;SDS011;45241;49.768;8.636;2024-01-07T11:32:20;11.77;;;7.75;;
59434;SDS011;45241;49.768;8.636;2024-01-07T11:34:47;11.05;;;7.25;;
59434;SDS011;45241;49.768;8.636;2024-01-07T11:37:15;12.85;;;7.43;;
59434;SDS011;45241;49.768;8.636;2024-01-07T11:39:42;13.23;;;8.55;;
59434;SDS011;45241;49.768;8.636;2024-01-07T11:42:09;10.98;;;7.22;;
59434;SDS011;45241;49.768;8.636;2024-01-07T11:44:34;11.90;;;7.97;;
59434;SDS011;45241;49.768;8.636;2024-01-07T11:47:02;12.23;;;7.70;;
59434;SDS011;45241;49.768;8.636;2024-01-07T11:49:28;12.35;;;7.70;;
59434;SDS011;45241;49.768;8.636;2024-01-07T11:51:53;12.85;;;8.38;;
59434;SDS011;45241;49.768;8.636;2024-01-07T11:54:19;11.65;;;7.18;;
59434;SDS011;45241;49.768;8.636;2024-01-07T11:56:44;10.65;;;7.43;;
59434;SDS011;45241;49.768;8.636;2024-01-07T11:59:10;11.48;;;7.57;;
59434;SDS011;45241;49.768;8.636;2024-01-07T12:01:35;12.32;;;7.80;;
59434;SDS011;45241;49.768;8.636;2024-01-07T12:04:00;15.35;;;9.38;;
59434;SDS011;45241;49.768;8.636;2024-01-07T12:06:25;12.82;;;8.68;;
59434;SDS011;45241;49.768;8.636;2024-01-07T12:08:51;12.70;;;8.00;;
59434;SDS011;45241;49.768;8.636;2024-01-07T12:11:17;12.48;;;8.05;;
59434;SDS011;45241;49.768;8.636;2024-01-07T12:13:44;11.20;;;7.95;;
59434;SDS011;45241;49.768;8.636;2024-01-07T12:16:10;12.30;;;7.20;;
59434;SDS011;45241;49.768;8.636;2024-01-07T12:18:38;11.50;;;7.50;;
59434;SDS011;45241;49.768;8.636;2024-01-07T12:21:04;12.45;;;7.20;;
59434;SDS011;45241;49.768;8.636;2024-01-07T12:23:34;12.52;;;7.57;;
59434;SDS011;45241;49.768;8.636;2024-01-07T12:26:06;11.35;;;7.38;;
59434;SDS011;45241;49.768;8.636;2024-01-07T12:28:34;11.48;;;7.32;;
59434;SDS011;45241;49.768;8.636;2024-01-07T12:30:59;12.57;;;7.55;;
59434;SDS011;45241;49.768;8.636;2024-01-07T12:33:26;13.45;;;7.20;;
59434;SDS011;45241;49.768;8.636;2024-01-07T12:35:53;11.38;;;7.22;;
59434;SDS011;45241;49.768;8.636;2024-01-07T12:38:26;13.27;;;7.85;;
59434;SDS011;45241;49.768;8.636;2024-01-07T12:40:52;12.90;;;7.43;;
59434;SDS011;45241;49.768;8.636;2024-01-07T12:43:18;10.75;;;7.13;;
59434;SDS011;45241;49.768;8.636;2024-01-07T12:45:44;12.55;;;7.63;;
59434;SDS011;45241;49.768;8.636;2024-01-07T12:48:10;11.93;;;7.25;;
59434;SDS011;45241;49.768;8.636;2024-01-07T12:50:36;11.98;;;7.18;;
59434;SDS011;45241;49.768;8.636;2024-01-07T12:53:01;10.63;;;7.53;;
59434;SDS011;45241;49.768;8.636;2024-01-07T12:55:26;13.68;;;7.63;;
59434;SDS011;45241;49.768;8.636;2024-01-07T12:57:52;13.60;;;8.00;;
59434;SDS011;45241;49.768;8.636;2024-01-07T13:00:17;14.68;;;7.90;;
59434;SDS011;45241;49.768;8.636;2024-01-07T13:02:43;12.90;;;7.57;;
59434;SDS011;45241;49.768;8.636;2024-01-07T13:05:08;11.55;;;7.45;;
59434;SDS011;45241;49.768;8.636;2024-01-07T13:07:34;11.63;;;7.40;;
59434;SDS011;45241;49.768;8.636;2024-01-07T13:10:00;11.50;;;7.28;;
59434;SDS011;45241;49.768;8.636;2024-01-07T13:12:25;10.93;;;7.10;;
59434;SDS011;45241;49.768;8.636;2024-01-07T13:14:51;12.98;;;7.25;;
59434;SDS011;45241;49.768;8.636;2024-01-07T13:17:17;10.48;;;7.45;;
59434;SDS011;45241;49.768;8.636;2024-01-07T13:19:43;11.30;;;7.38;;
59434;SDS011;45241;49.768;8.636;2024-01-07T13:22:08;11.10;;;7.30;;
59434;SDS011;45241;49.768;8.636;2024-01-07T13:24:34;11.80;;;7.28;;
59434;SDS011;45241;49.768;8.636;2024-01-07T13:26:59;10.77;;;7.50;;
59434;SDS011;45241;49.768;8.636;2024-01-07T13:29:25;12.70;;;7.22;;
59434;SDS011;45241;49.768;8.636;2024-01-07T13:31:50;10.95;;;6.93;;
59434;SDS011;45241;49.768;8.636;2024-01-07T13:34:16;10.65;;;6.93;;
59434;SDS011;45241;49.768;8.636;2024-01-07T13:36:42;11.30;;;7.30;;
59434;SDS011;45241;49.768;8.636;2024-01-07T13:39:08;10.63;;;6.90;;
59434;SDS011;45241;49.768;8.636;2024-01-07T13:41:34;11.07;;;7.07;;
59434;SDS011;45241;49.768;8.636;2024-01-07T13:44:00;12.48;;;7.15;;
59434;SDS011;45241;49.768;8.636;2024-01-07T13:46:25;10.82;;;7.35;;
59434;SDS011;45241;49.768;8.636;2024-01-07T13:48:51;12.57;;;7.70;;
59434;SDS011;45241;49.768;8.636;2024-01-07T13:51:16;11.38;;;7.45;;
59434;SDS011;45241;49.768;8.636;2024-01-07T13:53:42;11.07;;;7.35;;
59434;SDS011;45241;49.768;8.636;2024-01-07T13:56:08;14.00;;;7.50;;
59434;SDS011;45241;49.768;8.636;2024-01-07T13:58:33;12.35;;;7.82;;
59434;SDS011;45241;49.768;8.636;2024-01-07T14:00:59;12.50;;;8.35;;
59434;SDS011;45241;49.768;8.636;2024-01-07T14:03:24;12.88;;;7.95;;
59434;SDS011;45241;49.768;8.636;2024-01-07T14:05:50;12.30;;;7.45;;
59434;SDS011;45241;49.768;8.636;2024-01-07T14:08:16;11.77;;;7.97;;
59434;SDS011;45241;49.768;8.636;2024-01-07T14:10:41;10.73;;;7.25;;
59434;SDS011;45241;49.768;8.636;2024-01-07T14:13:07;11.65;;;7.80;;
59434;SDS011;45241;49.768;8.636;2024-01-07T14:15:32;13.07;;;7.90;;
59434;SDS011;45241;49.768;8.636;2024-01-07T14:17:57;10.20;;;7.65;;
59434;SDS011;45241;49.768;8.636;2024-01-07T14:20:23;10.85;;;7.10;;
59434;SDS011;45241;49.768;8.636;2024-01-07T14:22:48;13.52;;;7.63;;
59434;SDS011;45241;49.768;8.636;2024-01-07T14:25:13;12.25;;;7.32;;
59434;SDS011;45241;49.768;8.636;2024-01-07T14:27:39;11.02;;;7.43;;
59434;SDS011;45241;49.768;8.636;2024-01-07T14:30:05;11.02;;;7.32;;
59434;SDS011;45241;49.768;8.636;2024-01-07T14:32:30;11.65;;;6.78;;